createdAt,value
2023-05-04T00:01:26.871Z,6.60
2023-05-04T00:03:30.055Z,6.60
2023-05-04T00:05:33.480Z,6.60
2023-05-04T00:07:36.478Z,6.60
2023-05-04T00:09:39.532Z,6.50
2023-05-04T00:11:42.643Z,6.50
2023-05-04T00:13:46.864Z,6.50
2023-05-04T00:15:49.775Z,6.40
2023-05-04T00:17:52.743Z,6.40
2023-05-04T00:19:55.638Z,6.30
2023-05-04T00:21:58.486Z,6.30
2023-05-04T00:24:02.391Z,6.30
2023-05-04T00:26:05.620Z,6.20
2023-05-04T00:28:08.584Z,6.20
2023-05-04T00:30:13.415Z,6.20
2023-05-04T00:32:16.418Z,6.20
2023-05-04T00:34:19.434Z,6.10
2023-05-04T00:36:22.350Z,6.10
2023-05-04T00:38:25.203Z,6.00
2023-05-04T00:40:28.061Z,6.00
2023-05-04T00:42:30.869Z,6.00
2023-05-04T00:44:34.676Z,6.00
2023-05-04T00:46:39.091Z,5.90
2023-05-04T00:48:42.768Z,5.90
2023-05-04T00:50:46.089Z,5.90
2023-05-04T00:52:50.132Z,5.90
2023-05-04T00:54:54.182Z,5.80
2023-05-04T00:56:57.375Z,5.80
2023-05-04T00:59:00.326Z,5.70
2023-05-04T01:01:04.109Z,5.70
2023-05-04T01:03:11.229Z,5.70
2023-05-04T01:05:14.823Z,5.60
2023-05-04T01:07:24.790Z,5.60
2023-05-04T01:09:36.857Z,5.50
2023-05-04T01:11:45.105Z,5.50
2023-05-04T01:13:49.149Z,5.40
2023-05-04T01:15:53.056Z,5.40
2023-05-04T01:17:56.069Z,5.40
2023-05-04T01:20:00.582Z,5.30
2023-05-04T01:22:04.863Z,5.30
2023-05-04T01:24:08.170Z,5.20
2023-05-04T01:26:19.871Z,5.20
2023-05-04T01:28:28.908Z,5.20
2023-05-04T01:30:37.302Z,5.10
2023-05-04T01:32:42.591Z,5.10
2023-05-04T01:34:45.824Z,5.00
2023-05-04T01:36:53.879Z,5.00
2023-05-04T01:38:59.635Z,4.90
2023-05-04T01:41:02.648Z,4.90
2023-05-04T01:43:05.605Z,4.90
2023-05-04T01:45:10.018Z,4.90
2023-05-04T01:47:12.924Z,4.90
2023-05-04T01:49:15.830Z,4.90
2023-05-04T01:51:18.768Z,4.90
2023-05-04T01:53:21.705Z,4.80
2023-05-04T01:55:26.024Z,4.80
2023-05-04T01:57:29.039Z,4.80
2023-05-04T01:59:31.952Z,4.80
2023-05-04T02:01:34.838Z,4.80
2023-05-04T02:03:37.854Z,4.80
2023-05-04T02:05:40.834Z,4.80
2023-05-04T02:07:43.957Z,4.80
2023-05-04T02:09:46.876Z,4.80
2023-05-04T02:11:51.105Z,4.80
2023-05-04T02:13:53.967Z,4.80
2023-05-04T02:15:56.872Z,4.80
2023-05-04T02:17:59.781Z,4.80
2023-05-04T02:20:04.643Z,4.70
2023-05-04T02:22:07.987Z,4.70
2023-05-04T02:24:11.487Z,4.70
2023-05-04T02:26:14.362Z,4.70
2023-05-04T02:28:18.845Z,4.70
2023-05-04T02:30:22.039Z,4.70
2023-05-04T02:32:25.942Z,4.70
2023-05-04T02:34:28.903Z,4.70
2023-05-04T02:36:31.742Z,4.70
2023-05-04T02:38:34.675Z,4.60
2023-05-04T02:40:37.647Z,4.60
2023-05-04T02:42:40.638Z,4.60
2023-05-04T02:44:44.904Z,4.60
2023-05-04T02:46:48.170Z,4.60
2023-05-04T02:48:51.023Z,4.60
2023-05-04T02:50:53.887Z,4.60
2023-05-04T02:52:56.818Z,4.60
2023-05-04T02:55:00.007Z,4.60
2023-05-04T02:57:03.095Z,4.60
2023-05-04T02:59:06.262Z,4.60
2023-05-04T03:01:10.577Z,4.60
2023-05-04T03:03:13.944Z,4.60
2023-05-04T03:05:16.909Z,4.60
2023-05-04T03:07:19.896Z,4.60
2023-05-04T03:09:23.006Z,4.60
2023-05-04T03:11:26.211Z,4.60
2023-05-04T03:13:29.153Z,4.60
2023-05-04T03:15:32.076Z,4.60
2023-05-04T03:17:36.743Z,4.60
2023-05-04T03:19:39.704Z,4.60
2023-05-04T03:21:43.089Z,4.60
2023-05-04T03:23:46.094Z,4.60
2023-05-04T03:25:49.041Z,4.60
2023-05-04T03:27:52.059Z,4.60
2023-05-04T03:29:55.657Z,4.70
2023-05-04T03:31:58.701Z,4.60
2023-05-04T03:34:03.279Z,4.70
2023-05-04T03:36:06.728Z,4.70
2023-05-04T03:38:10.629Z,4.70
2023-05-04T03:40:14.426Z,4.70
2023-05-04T03:42:17.445Z,4.70
2023-05-04T03:44:20.394Z,4.70
2023-05-04T03:46:23.432Z,4.70
2023-05-04T03:48:26.429Z,4.70
2023-05-04T03:50:31.831Z,4.70
2023-05-04T03:52:34.744Z,4.70
2023-05-04T03:54:37.692Z,4.70
2023-05-04T03:56:43.521Z,4.70
2023-05-04T03:58:46.368Z,4.70
2023-05-04T04:00:49.247Z,4.70
2023-05-04T04:02:52.611Z,4.70
2023-05-04T04:04:55.599Z,4.70
2023-05-04T04:07:00.004Z,4.70
2023-05-04T04:09:28.775Z,4.70
2023-05-04T04:11:31.846Z,4.70
2023-05-04T04:13:34.836Z,4.70
2023-05-04T04:15:37.782Z,4.80
2023-05-04T04:17:41.186Z,4.80
2023-05-04T04:19:44.365Z,4.80
2023-05-04T04:21:47.259Z,4.80
2023-05-04T04:23:51.606Z,4.70
2023-05-04T04:25:56.638Z,4.80
2023-05-04T04:27:59.605Z,4.80
2023-05-04T04:30:04.730Z,4.80
2023-05-04T04:32:08.542Z,4.80
2023-05-04T04:34:11.707Z,4.90
2023-05-04T04:36:16.726Z,4.90
2023-05-04T04:38:19.647Z,5.00
2023-05-04T04:40:23.956Z,5.10
2023-05-04T04:42:26.838Z,5.10
2023-05-04T04:44:29.787Z,5.20
2023-05-04T04:46:33.644Z,5.30
2023-05-04T04:48:36.533Z,5.40
2023-05-04T04:50:40.134Z,5.50
2023-05-04T04:52:43.193Z,5.50
2023-05-04T04:54:46.738Z,5.60
2023-05-04T04:56:51.196Z,5.70
2023-05-04T04:58:54.203Z,5.80
2023-05-04T05:00:58.237Z,5.90
2023-05-04T05:03:01.298Z,6.00
2023-05-04T05:05:04.458Z,6.00
2023-05-04T05:07:08.828Z,6.10
2023-05-04T05:09:11.857Z,6.20
2023-05-04T05:11:14.679Z,6.30
2023-05-04T05:13:19.155Z,6.40
2023-05-04T05:15:22.152Z,6.40
2023-05-04T05:17:25.039Z,6.50
2023-05-04T05:19:28.307Z,6.60
2023-05-04T05:21:31.223Z,6.70
2023-05-04T05:23:35.550Z,6.70
2023-05-04T05:25:39.225Z,6.80
2023-05-04T05:27:42.341Z,6.90
2023-05-04T05:29:47.049Z,6.90
2023-05-04T05:31:49.964Z,7.00
2023-05-04T05:33:52.786Z,7.10
2023-05-04T05:35:55.692Z,7.20
2023-05-04T05:37:59.200Z,7.30
2023-05-04T05:40:02.202Z,7.40
2023-05-04T05:42:05.839Z,7.50
2023-05-04T05:44:09.212Z,7.50
2023-05-04T05:46:15.766Z,7.60
2023-05-04T05:48:21.347Z,7.70
2023-05-04T05:50:24.839Z,7.80
2023-05-04T05:52:28.063Z,7.80
2023-05-04T05:54:31.851Z,7.90
2023-05-04T05:56:34.723Z,7.90
2023-05-04T05:58:37.696Z,8.00
2023-05-04T06:00:40.687Z,8.10
2023-05-04T06:02:45.308Z,8.10
2023-05-04T06:04:49.829Z,8.10
2023-05-04T06:06:52.846Z,8.20
2023-05-04T06:08:55.740Z,8.20
2023-05-04T06:10:58.552Z,8.20
2023-05-04T06:13:01.414Z,8.30
2023-05-04T06:15:04.654Z,8.40
2023-05-04T06:17:08.738Z,8.40
2023-05-04T06:19:13.085Z,8.50
2023-05-04T06:21:16.212Z,8.50
2023-05-04T06:23:19.139Z,8.40
2023-05-04T06:25:22.064Z,8.50
2023-05-04T06:27:28.819Z,8.60
2023-05-04T06:29:31.743Z,8.70
2023-05-04T06:31:34.712Z,8.80
2023-05-04T06:33:38.344Z,9.00
2023-05-04T06:35:42.899Z,9.00
2023-05-04T06:37:45.904Z,9.20
2023-05-04T06:39:49.087Z,9.20
2023-05-04T06:41:54.882Z,9.20
2023-05-04T06:43:59.837Z,9.30
2023-05-04T06:46:05.134Z,9.50
2023-05-04T06:48:08.834Z,9.60
2023-05-04T06:50:12.914Z,9.70
2023-05-04T06:52:17.655Z,9.80
2023-05-04T06:54:20.682Z,9.90
2023-05-04T06:56:24.019Z,10.00
2023-05-04T06:58:27.082Z,10.10
2023-05-04T07:00:30.062Z,9.90
2023-05-04T07:02:33.103Z,10.00
2023-05-04T07:04:36.065Z,10.10
2023-05-04T07:06:39.424Z,10.20
2023-05-04T07:08:46.011Z,10.30
2023-05-04T07:10:49.208Z,10.40
2023-05-04T07:12:52.180Z,10.30
2023-05-04T07:14:56.918Z,10.40
2023-05-04T07:17:01.180Z,10.30
2023-05-04T07:19:04.715Z,10.30
2023-05-04T07:23:19.653Z,10.90
2023-05-04T07:25:24.112Z,11.10
2023-05-04T07:27:26.949Z,11.40
2023-05-04T07:29:29.801Z,11.50
2023-05-04T07:31:33.590Z,11.60
2023-05-04T07:33:36.470Z,11.80
2023-05-04T07:35:39.354Z,12.00
2023-05-04T07:37:42.260Z,12.10
2023-05-04T07:39:45.299Z,12.20
2023-05-04T07:41:51.564Z,12.40
2023-05-04T07:43:54.542Z,12.50
2023-05-04T07:45:57.416Z,12.70
2023-05-04T07:48:00.522Z,13.00
2023-05-04T07:50:03.637Z,13.30
2023-05-04T07:52:07.030Z,13.60
2023-05-04T07:54:09.851Z,13.90
2023-05-04T07:56:13.468Z,14.10
2023-05-04T07:58:17.709Z,14.40
2023-05-04T08:00:22.173Z,14.60
2023-05-04T08:02:26.365Z,14.80
2023-05-04T08:04:29.604Z,15.00
2023-05-04T08:06:34.555Z,15.10
2023-05-04T08:08:37.412Z,15.30
2023-05-04T08:10:40.814Z,15.40
2023-05-04T08:12:43.959Z,15.50
2023-05-04T08:14:49.416Z,15.50
2023-05-04T08:16:53.698Z,15.60
2023-05-04T08:18:57.020Z,15.80
2023-05-04T08:20:59.940Z,15.90
2023-05-04T08:23:03.901Z,16.10
2023-05-04T08:25:08.205Z,16.30
2023-05-04T08:27:14.650Z,16.40
2023-05-04T08:29:17.560Z,16.50
2023-05-04T08:31:21.985Z,16.60
2023-05-04T08:33:24.950Z,16.60
2023-05-04T08:35:28.693Z,16.50
2023-05-04T08:37:31.816Z,16.30
2023-05-04T08:39:34.655Z,16.30
2023-05-04T08:41:40.638Z,16.40
2023-05-04T08:43:45.278Z,16.50
2023-05-04T08:45:49.584Z,16.50
2023-05-04T08:47:56.256Z,16.50
2023-05-04T08:49:59.285Z,16.60
2023-05-04T08:52:03.489Z,16.60
2023-05-04T08:54:10.610Z,16.70
2023-05-04T08:56:14.627Z,16.80
2023-05-04T08:58:19.678Z,16.90
2023-05-04T09:00:23.227Z,17.00
2023-05-04T09:02:27.095Z,17.10
2023-05-04T09:04:32.456Z,17.20
2023-05-04T09:06:35.561Z,17.30
2023-05-04T09:08:38.554Z,17.30
2023-05-04T09:10:41.747Z,17.40
2023-05-04T09:12:44.733Z,17.50
2023-05-04T09:14:47.987Z,17.60
2023-05-04T09:16:51.086Z,17.60
2023-05-04T09:18:54.295Z,17.50
2023-05-04T09:20:59.363Z,17.40
2023-05-04T09:23:03.948Z,17.40
2023-05-04T09:25:11.663Z,17.30
2023-05-04T09:27:18.560Z,17.30
2023-05-04T09:29:24.558Z,17.20
2023-05-04T09:31:28.116Z,17.30
2023-05-04T09:33:32.097Z,17.40
2023-05-04T09:35:35.224Z,17.60
2023-05-04T09:37:48.692Z,17.80
2023-05-04T09:39:53.647Z,18.00
2023-05-04T09:41:56.751Z,18.10
2023-05-04T09:43:59.738Z,18.20
2023-05-04T09:46:02.830Z,18.40
2023-05-04T09:48:20.001Z,18.50
2023-05-04T09:50:25.615Z,18.70
2023-05-04T09:52:33.422Z,18.80
2023-05-04T09:54:41.849Z,18.90
2023-05-04T09:56:50.335Z,19.00
2023-05-04T09:58:56.985Z,19.10
2023-05-04T10:01:02.191Z,19.20
2023-05-04T10:03:07.714Z,19.30
2023-05-04T10:05:14.932Z,19.30
2023-05-04T10:07:18.078Z,19.20
2023-05-04T10:09:22.241Z,19.30
2023-05-04T10:11:27.233Z,19.40
2023-05-04T10:13:30.282Z,19.50
2023-05-04T10:15:34.067Z,19.60
2023-05-04T10:18:05.872Z,19.70
2023-05-04T10:20:23.780Z,19.80
2023-05-04T10:22:42.687Z,19.90
2023-05-04T10:25:08.253Z,20.00
2023-05-04T10:27:15.911Z,20.10
2023-05-04T10:29:23.701Z,20.20
2023-05-04T10:31:37.328Z,20.20
2023-05-04T10:33:41.256Z,20.30
2023-05-04T10:35:53.037Z,20.40
2023-05-04T10:37:57.394Z,20.40
2023-05-04T10:40:00.443Z,20.50
2023-05-04T10:42:04.876Z,20.50
2023-05-04T10:44:09.985Z,20.60
2023-05-04T10:46:21.349Z,20.70
2023-05-04T10:48:35.133Z,20.80
2023-05-04T10:50:53.253Z,20.80
2023-05-04T10:52:58.275Z,20.90
2023-05-04T10:55:05.472Z,21.00
2023-05-04T10:57:10.250Z,21.10
2023-05-04T10:59:14.947Z,21.10
2023-05-04T11:01:18.582Z,21.20
2023-05-04T11:03:24.711Z,21.30
2023-05-04T11:05:43.641Z,21.40
2023-05-04T11:08:01.474Z,21.40
2023-05-04T11:10:05.282Z,21.40
2023-05-04T11:12:10.658Z,21.40
2023-05-04T11:14:25.285Z,21.40
2023-05-04T11:16:28.648Z,21.60
2023-05-04T11:18:37.490Z,21.70
2023-05-04T11:20:40.973Z,21.70
2023-05-04T11:22:44.024Z,21.80
2023-05-04T11:24:48.641Z,22.00
2023-05-04T11:26:51.891Z,22.00
2023-05-04T11:28:55.200Z,21.90
2023-05-04T11:30:59.609Z,22.00
2023-05-04T11:33:05.223Z,22.10
2023-05-04T11:35:10.450Z,22.20
2023-05-04T11:37:16.540Z,22.40
2023-05-04T11:39:19.935Z,22.50
2023-05-04T11:41:27.263Z,22.60
2023-05-04T11:43:31.776Z,22.70
2023-05-04T11:45:37.738Z,22.70
2023-05-04T11:47:42.749Z,22.60
2023-05-04T11:49:47.559Z,22.60
2023-05-04T11:51:50.690Z,22.50
2023-05-04T11:53:55.187Z,22.50
2023-05-04T11:56:03.541Z,22.40
2023-05-04T11:58:08.086Z,22.50
2023-05-04T12:00:14.353Z,22.50
2023-05-04T12:02:18.993Z,22.50
2023-05-04T12:04:32.434Z,22.50
2023-05-04T12:06:35.401Z,22.50
2023-05-04T12:08:42.302Z,22.60
2023-05-04T12:10:46.949Z,22.70
2023-05-04T12:12:49.984Z,22.70
2023-05-04T12:14:55.612Z,22.70
2023-05-04T12:17:01.742Z,22.80
2023-05-04T12:19:05.992Z,22.90
2023-05-04T12:21:12.107Z,22.80
2023-05-04T12:23:16.707Z,22.80
2023-05-04T12:25:20.168Z,22.80
2023-05-04T12:27:23.170Z,22.90
2023-05-04T12:29:30.781Z,22.80
2023-05-04T12:31:34.046Z,22.70
2023-05-04T12:33:37.350Z,22.60
2023-05-04T12:35:40.331Z,22.70
2023-05-04T12:37:46.512Z,22.80
2023-05-04T12:39:52.679Z,22.90
2023-05-04T12:41:55.628Z,22.90
2023-05-04T12:43:59.410Z,23.00
2023-05-04T12:46:02.380Z,23.00
2023-05-04T12:48:05.759Z,23.00
2023-05-04T12:50:09.521Z,23.00
2023-05-04T12:52:14.146Z,22.90
2023-05-04T12:54:18.583Z,23.00
2023-05-04T12:56:21.535Z,22.90
2023-05-04T12:58:24.676Z,23.00
2023-05-04T13:00:46.487Z,23.00
2023-05-04T13:02:49.797Z,23.00
2023-05-04T13:04:52.959Z,23.00
2023-05-04T13:06:56.010Z,23.10
2023-05-04T13:09:01.629Z,23.20
2023-05-04T13:11:06.261Z,23.20
2023-05-04T13:13:09.403Z,23.30
2023-05-04T13:15:13.122Z,23.40
2023-05-04T13:17:18.255Z,23.40
2023-05-04T13:19:21.417Z,23.40
2023-05-04T13:21:24.865Z,23.40
2023-05-04T13:23:27.900Z,23.50
2023-05-04T13:25:31.136Z,23.60
2023-05-04T13:27:35.574Z,23.70
2023-05-04T13:29:38.971Z,23.70
2023-05-04T13:31:45.016Z,23.70
2023-05-04T13:33:50.411Z,23.60
2023-05-04T13:35:53.472Z,23.60
2023-05-04T13:38:02.824Z,23.70
2023-05-04T13:40:11.149Z,23.70
2023-05-04T13:42:14.740Z,23.80
2023-05-04T13:44:19.174Z,23.80
2023-05-04T13:46:25.330Z,23.90
2023-05-04T13:48:28.424Z,24.10
2023-05-04T13:50:32.609Z,24.20
2023-05-04T13:52:35.819Z,24.30
2023-05-04T13:54:41.005Z,24.30
2023-05-04T13:56:44.117Z,24.30
2023-05-04T13:58:47.187Z,24.30
2023-05-04T14:00:51.901Z,24.40
2023-05-04T14:03:01.767Z,24.40
2023-05-04T14:05:05.226Z,24.40
2023-05-04T14:07:09.110Z,24.50
2023-05-04T14:09:14.506Z,24.50
2023-05-04T14:11:17.448Z,24.60
2023-05-04T14:13:20.857Z,24.70
2023-05-04T14:15:23.856Z,24.80
2023-05-04T14:17:28.192Z,24.90
2023-05-04T14:19:31.112Z,25.00
2023-05-04T14:21:43.055Z,25.00
2023-05-04T14:23:47.156Z,25.10
2023-05-04T14:25:53.162Z,25.30
2023-05-04T14:27:58.234Z,25.40
2023-05-04T14:30:01.289Z,25.50
2023-05-04T14:32:04.524Z,25.50
2023-05-04T14:34:08.915Z,25.60
2023-05-04T14:36:12.889Z,25.70
2023-05-04T14:38:18.760Z,25.70
2023-05-04T14:40:21.730Z,25.70
2023-05-04T14:42:26.438Z,25.60
2023-05-04T14:44:30.192Z,25.50
2023-05-04T14:46:33.438Z,25.60
2023-05-04T14:48:36.928Z,25.80
2023-05-04T14:50:42.435Z,26.10
2023-05-04T14:52:45.645Z,26.30
2023-05-04T14:54:48.771Z,26.50
2023-05-04T14:56:52.479Z,26.80
2023-05-04T14:58:57.314Z,27.10
2023-05-04T15:01:01.010Z,27.20
2023-05-04T15:03:04.298Z,27.40
2023-05-04T15:05:09.758Z,27.20
2023-05-04T15:07:16.440Z,27.20
2023-05-04T15:09:19.962Z,27.20
2023-05-04T15:11:22.829Z,27.20
2023-05-04T15:13:25.912Z,27.30
2023-05-04T15:15:28.876Z,27.50
2023-05-04T15:17:31.852Z,27.50
2023-05-04T15:19:37.582Z,27.40
2023-05-04T15:21:41.618Z,27.40
2023-05-04T15:23:46.740Z,27.40
2023-05-04T15:25:50.600Z,27.60
2023-05-04T15:27:53.652Z,27.50
2023-05-04T15:29:57.003Z,27.60
2023-05-04T15:32:00.331Z,27.60
2023-05-04T15:34:03.604Z,27.80
2023-05-04T15:36:14.833Z,27.70
2023-05-04T15:38:18.252Z,27.80
2023-05-04T15:40:22.817Z,27.80
2023-05-04T15:42:26.096Z,27.60
2023-05-04T15:44:29.220Z,27.60
2023-05-04T15:46:32.353Z,27.60
2023-05-04T15:48:35.294Z,27.70
2023-05-04T15:50:40.922Z,27.80
2023-05-04T15:52:46.498Z,28.00
2023-05-04T15:54:49.565Z,28.30
2023-05-04T15:56:56.673Z,28.20
2023-05-04T15:58:59.655Z,28.10
2023-05-04T16:01:04.044Z,28.00
2023-05-04T16:03:08.107Z,28.10
2023-05-04T16:05:11.534Z,28.00
2023-05-04T16:07:15.325Z,27.90
2023-05-04T16:09:20.792Z,27.80
2023-05-04T16:11:29.145Z,28.00
2023-05-04T16:13:36.683Z,28.10
2023-05-04T16:15:42.351Z,28.30
2023-05-04T16:17:48.139Z,28.30
2023-05-04T16:19:51.451Z,28.20
2023-05-04T16:21:54.437Z,28.20
2023-05-04T16:23:57.322Z,28.10
2023-05-04T16:26:00.977Z,28.00
2023-05-04T16:28:03.976Z,27.70
2023-05-04T16:30:10.113Z,27.60
2023-05-04T16:32:13.325Z,27.40
2023-05-04T16:34:16.335Z,27.20
2023-05-04T16:36:19.202Z,27.20
2023-05-04T16:38:22.098Z,27.20
2023-05-04T16:40:25.176Z,27.10
2023-05-04T16:42:28.277Z,27.30
2023-05-04T16:44:31.995Z,27.60
2023-05-04T16:46:36.571Z,27.80
2023-05-04T16:48:40.064Z,27.90
2023-05-04T16:50:42.979Z,27.80
2023-05-04T16:52:46.636Z,28.00
2023-05-04T16:54:49.635Z,28.50
2023-05-04T16:56:52.998Z,28.90
2023-05-04T16:58:56.028Z,29.30
2023-05-04T17:00:59.326Z,29.60
2023-05-04T17:03:05.876Z,29.80
2023-05-04T17:05:10.386Z,29.70
2023-05-04T17:07:13.468Z,29.40
2023-05-04T17:09:16.323Z,29.10
2023-05-04T17:11:21.782Z,29.00
2023-05-04T17:13:24.739Z,28.70
2023-05-04T17:15:27.677Z,28.30
2023-05-04T17:17:30.757Z,27.80
2023-05-04T17:19:35.841Z,27.20
2023-05-04T17:21:38.714Z,26.50
2023-05-04T17:23:41.969Z,25.90
2023-05-04T17:25:45.990Z,25.40
2023-05-04T17:27:49.003Z,25.00
2023-05-04T17:29:51.892Z,24.70
2023-05-04T17:31:54.855Z,24.30
2023-05-04T17:33:57.648Z,24.10
2023-05-04T17:36:02.102Z,23.80
2023-05-04T17:38:04.959Z,23.60
2023-05-04T17:40:09.201Z,23.40
2023-05-04T17:42:13.531Z,23.20
2023-05-04T17:44:16.957Z,23.00
2023-05-04T17:46:19.765Z,22.80
2023-05-04T17:48:23.739Z,22.70
2023-05-04T17:50:27.612Z,22.50
2023-05-04T17:52:31.813Z,22.40
2023-05-04T17:54:34.635Z,22.30
2023-05-04T17:56:37.489Z,22.20
2023-05-04T17:58:40.434Z,22.10
2023-05-04T18:00:43.233Z,22.00
2023-05-04T18:02:46.134Z,21.90
2023-05-04T18:04:49.035Z,21.80
2023-05-04T18:06:51.881Z,21.70
2023-05-04T18:08:56.164Z,21.60
2023-05-04T18:11:01.124Z,21.50
2023-05-04T18:13:04.038Z,21.40
2023-05-04T18:15:08.923Z,21.40
2023-05-04T18:17:11.879Z,21.20
2023-05-04T18:19:14.783Z,21.10
2023-05-04T18:21:17.779Z,21.00
2023-05-04T18:23:20.554Z,20.90
2023-05-04T18:25:25.136Z,20.80
2023-05-04T18:27:31.862Z,20.60
2023-05-04T18:29:34.761Z,20.50
2023-05-04T18:31:37.732Z,20.40
2023-05-04T18:33:40.553Z,20.30
2023-05-04T18:35:43.321Z,20.20
2023-05-04T18:37:46.412Z,20.00
2023-05-04T18:39:49.530Z,19.90
2023-05-04T18:41:53.821Z,19.80
2023-05-04T18:43:57.118Z,19.70
2023-05-04T18:46:06.640Z,19.60
2023-05-04T18:48:09.534Z,19.50
2023-05-04T18:50:12.648Z,19.40
2023-05-04T18:52:15.514Z,19.30
2023-05-04T18:54:18.315Z,19.10
2023-05-04T18:56:21.152Z,18.90
2023-05-04T18:58:25.354Z,18.80
2023-05-04T19:00:28.608Z,18.60
2023-05-04T19:02:32.500Z,18.50
2023-05-04T19:04:35.485Z,18.40
2023-05-04T19:06:38.283Z,18.30
2023-05-04T19:08:41.585Z,18.10
2023-05-04T19:10:44.478Z,18.00
2023-05-04T19:12:47.365Z,17.80
2023-05-04T19:14:51.800Z,17.70
2023-05-04T19:16:56.038Z,17.50
2023-05-04T19:18:59.205Z,17.40
2023-05-04T19:21:05.362Z,17.30
2023-05-04T19:23:10.353Z,17.20
2023-05-04T19:25:23.327Z,17.10
2023-05-04T19:27:36.069Z,17.00
2023-05-04T19:29:38.954Z,16.90
2023-05-04T19:31:43.323Z,16.80
2023-05-04T19:33:48.768Z,16.70
2023-05-04T19:35:51.894Z,16.70
2023-05-04T19:37:55.819Z,16.60
2023-05-04T19:39:58.782Z,16.50
2023-05-04T19:42:01.975Z,16.50
2023-05-04T19:44:08.142Z,16.40
2023-05-04T19:46:11.295Z,16.40
2023-05-04T19:48:24.203Z,16.40
2023-05-04T19:50:27.714Z,16.40
2023-05-04T19:52:30.939Z,16.40
2023-05-04T19:54:34.325Z,16.40
2023-05-04T19:56:37.303Z,16.40
2023-05-04T19:58:40.205Z,16.30
2023-05-04T20:00:44.468Z,16.30
2023-05-04T20:02:47.773Z,16.10
2023-05-04T20:04:52.285Z,16.00
2023-05-04T20:06:55.384Z,15.90
2023-05-04T20:08:58.224Z,15.80
2023-05-04T20:11:01.266Z,15.60
2023-05-04T20:13:05.431Z,15.60
2023-05-04T20:15:08.873Z,15.50
2023-05-04T20:17:11.836Z,15.50
2023-05-04T20:19:15.030Z,15.40
2023-05-04T20:21:19.574Z,15.40
2023-05-04T20:23:22.551Z,15.30
2023-05-04T20:25:27.224Z,15.30
2023-05-04T20:27:30.027Z,15.20
2023-05-04T20:29:33.853Z,15.10
2023-05-04T20:31:36.958Z,15.10
2023-05-04T20:33:39.930Z,15.00
2023-05-04T20:35:44.000Z,15.00
2023-05-04T20:37:49.486Z,15.00
2023-05-04T20:39:52.935Z,15.00
2023-05-04T20:41:55.804Z,15.00
2023-05-04T20:43:58.669Z,15.00
2023-05-04T20:46:01.733Z,15.00
2023-05-04T20:48:05.250Z,14.90
2023-05-04T20:50:12.256Z,14.80
2023-05-04T20:52:15.225Z,14.80
2023-05-04T20:54:19.556Z,14.70
2023-05-04T20:56:22.875Z,14.70
2023-05-04T20:58:27.818Z,14.70
2023-05-04T21:00:33.813Z,14.70
2023-05-04T21:02:37.275Z,14.70
2023-05-04T21:04:40.525Z,14.60
2023-05-04T21:06:44.013Z,14.60
2023-05-04T21:08:48.591Z,14.50
2023-05-04T21:10:56.198Z,14.40
2023-05-04T21:12:59.191Z,14.20
2023-05-04T21:15:03.607Z,14.10
2023-05-04T21:17:09.864Z,14.00
2023-05-04T21:19:14.097Z,13.90
2023-05-04T21:21:17.269Z,13.80
2023-05-04T21:23:20.115Z,13.80
2023-05-04T21:25:23.161Z,13.80
2023-05-04T21:27:27.412Z,13.80
2023-05-04T21:29:30.481Z,13.80
2023-05-04T21:31:33.993Z,13.80
2023-05-04T21:33:37.177Z,13.80
2023-05-04T21:35:40.073Z,13.80
2023-05-04T21:37:43.092Z,13.70
2023-05-04T21:39:46.079Z,13.70
2023-05-04T21:41:49.045Z,13.60
2023-05-04T21:43:53.643Z,13.50
2023-05-04T21:45:56.555Z,13.40
2023-05-04T21:47:59.574Z,13.30
2023-05-04T21:50:02.444Z,13.30
2023-05-04T21:52:05.580Z,13.20
2023-05-04T21:54:20.456Z,13.10
2023-05-04T21:56:23.892Z,13.10
2023-05-04T21:58:26.926Z,13.00
2023-05-04T22:00:41.339Z,12.90
2023-05-04T22:02:44.716Z,12.90
2023-05-04T22:04:47.860Z,12.80
2023-05-04T22:06:50.870Z,12.90
2023-05-04T22:08:53.936Z,12.90
2023-05-04T22:10:58.734Z,12.80
2023-05-04T22:13:02.442Z,12.80
2023-05-04T22:15:06.604Z,12.70
2023-05-04T22:17:11.172Z,12.70
2023-05-04T22:19:14.204Z,12.70
2023-05-04T22:21:17.088Z,12.60
2023-05-04T22:23:19.988Z,12.50
2023-05-04T22:25:22.809Z,12.50
2023-05-04T22:27:25.952Z,12.50
2023-05-04T22:29:28.929Z,12.50
2023-05-04T22:31:31.812Z,12.50
2023-05-04T22:33:36.112Z,12.50
2023-05-04T22:35:39.103Z,12.50
2023-05-04T22:37:41.985Z,12.40
2023-05-04T22:39:44.962Z,12.40
2023-05-04T22:41:47.786Z,12.30
2023-05-04T22:43:50.581Z,12.40
2023-05-04T22:45:53.556Z,12.40
2023-05-04T22:47:56.473Z,12.30
2023-05-04T22:50:00.600Z,12.30
2023-05-04T22:52:03.395Z,12.20
2023-05-04T22:54:12.207Z,12.10
2023-05-04T22:56:14.989Z,12.00
2023-05-04T22:58:17.841Z,12.00
2023-05-04T23:00:21.654Z,11.90
2023-05-04T23:02:24.793Z,11.90
2023-05-04T23:04:27.832Z,11.80
2023-05-04T23:06:33.967Z,11.70
2023-05-04T23:08:36.905Z,11.70
2023-05-04T23:10:39.802Z,11.70
2023-05-04T23:12:43.541Z,11.70
2023-05-04T23:14:46.429Z,11.80
2023-05-04T23:16:49.211Z,11.80
2023-05-04T23:18:52.662Z,11.80
2023-05-04T23:20:55.577Z,11.80
2023-05-04T23:22:59.893Z,11.80
2023-05-04T23:25:03.386Z,11.80
2023-05-04T23:27:06.351Z,11.80
2023-05-04T23:29:09.231Z,11.80
2023-05-04T23:31:12.268Z,11.80
2023-05-04T23:33:15.334Z,11.90
2023-05-04T23:35:18.380Z,11.90
2023-05-04T23:37:21.401Z,12.00
2023-05-04T23:39:25.641Z,12.00
2023-05-04T23:41:28.696Z,12.00
2023-05-04T23:43:31.735Z,12.10
2023-05-04T23:45:34.589Z,12.20
2023-05-04T23:47:37.938Z,12.20
2023-05-04T23:49:41.041Z,12.20
2023-05-04T23:51:44.099Z,12.20
2023-05-04T23:53:47.122Z,12.20
2023-05-04T23:56:01.275Z,12.20
2023-05-04T23:58:06.180Z,12.20
